createdAt,value
2023-02-24T00:00:47.386Z,1006.82
2023-02-24T00:01:46.630Z,1006.80
2023-02-24T00:02:46.700Z,1006.77
2023-02-24T00:03:46.637Z,1006.79
2023-02-24T00:04:46.545Z,1006.78
2023-02-24T00:05:46.513Z,1006.76
2023-02-24T00:06:46.489Z,1006.78
2023-02-24T00:07:46.466Z,1006.77
2023-02-24T00:08:46.435Z,1006.76
2023-02-24T00:09:46.397Z,1006.76
2023-02-24T00:10:46.376Z,1006.77
2023-02-24T00:11:46.387Z,1006.73
2023-02-24T00:12:46.313Z,1006.80
2023-02-24T00:13:46.284Z,1006.75
2023-02-24T00:14:46.261Z,1006.74
2023-02-24T00:15:46.225Z,1006.73
2023-02-24T00:16:46.292Z,1006.75
2023-02-24T00:17:46.181Z,1006.71
2023-02-24T00:18:46.164Z,1006.69
2023-02-24T00:19:46.112Z,1006.70
2023-02-24T00:20:46.087Z,1006.70
2023-02-24T00:21:46.063Z,1006.70
2023-02-24T00:22:46.028Z,1006.65
2023-02-24T00:23:45.993Z,1006.62
2023-02-24T00:24:45.966Z,1006.66
2023-02-24T00:25:45.969Z,1006.65
2023-02-24T00:26:45.984Z,1006.60
2023-02-24T00:27:45.899Z,1006.58
2023-02-24T00:28:45.860Z,1006.60
2023-02-24T00:29:45.864Z,1006.60
2023-02-24T00:30:45.820Z,1006.60
2023-02-24T00:31:46.004Z,1006.58
2023-02-24T00:32:45.914Z,1006.59
2023-02-24T00:33:45.713Z,1006.54
2023-02-24T00:34:45.685Z,1006.56
2023-02-24T00:35:45.657Z,1006.57
2023-02-24T00:36:45.635Z,1006.59
2023-02-24T00:37:45.598Z,1006.53
2023-02-24T00:38:45.573Z,1006.57
2023-02-24T00:39:45.540Z,1006.61
2023-02-24T00:40:45.527Z,1006.54
2023-02-24T00:41:45.483Z,1006.58
2023-02-24T00:42:45.461Z,1006.61
2023-02-24T00:43:45.449Z,1006.59
2023-02-24T00:44:45.473Z,1006.60
2023-02-24T00:45:45.371Z,1006.60
2023-02-24T00:46:45.344Z,1006.59
2023-02-24T00:47:45.312Z,1006.61
2023-02-24T00:48:45.285Z,1006.57
2023-02-24T00:49:45.258Z,1006.55
2023-02-24T00:50:45.228Z,1006.58
2023-02-24T00:51:45.198Z,1006.56
2023-02-24T00:52:45.169Z,1006.57
2023-02-24T00:53:45.138Z,1006.52
2023-02-24T00:54:45.121Z,1006.51
2023-02-24T00:55:45.080Z,1006.47
2023-02-24T00:56:45.054Z,1006.49
2023-02-24T00:57:45.024Z,1006.46
2023-02-24T00:58:44.994Z,1006.51
2023-02-24T00:59:44.982Z,1006.44
2023-02-24T01:00:44.936Z,1006.38
2023-02-24T01:01:44.965Z,1006.44
2023-02-24T01:02:44.881Z,1006.40
2023-02-24T01:03:44.932Z,1006.42
2023-02-24T01:04:44.828Z,1006.44
2023-02-24T01:05:44.790Z,1006.41
2023-02-24T01:06:44.765Z,1006.40
2023-02-24T01:07:44.730Z,1006.39
2023-02-24T01:08:44.703Z,1006.40
2023-02-24T01:09:44.674Z,1006.38
2023-02-24T01:10:44.644Z,1006.36
2023-02-24T01:11:44.642Z,1006.31
2023-02-24T01:12:44.588Z,1006.31
2023-02-24T01:13:44.558Z,1006.27
2023-02-24T01:14:44.529Z,1006.26
2023-02-24T01:15:44.589Z,1006.24
2023-02-24T01:16:44.472Z,1006.25
2023-02-24T01:17:44.438Z,1006.23
2023-02-24T01:18:44.412Z,1006.21
2023-02-24T01:19:44.458Z,1006.19
2023-02-24T01:20:44.440Z,1006.15
2023-02-24T01:21:44.322Z,1006.18
2023-02-24T01:22:44.294Z,1006.16
2023-02-24T01:23:44.266Z,1006.16
2023-02-24T01:24:44.259Z,1006.12
2023-02-24T01:25:44.204Z,1006.13
2023-02-24T01:26:44.186Z,1006.09
2023-02-24T01:27:44.156Z,1006.08
2023-02-24T01:28:44.121Z,1006.08
2023-02-24T01:29:44.091Z,1006.05
2023-02-24T01:30:44.070Z,1006.03
2023-02-24T01:31:44.316Z,1006.03
2023-02-24T01:32:44.232Z,1006.00
2023-02-24T01:33:43.976Z,1005.99
2023-02-24T01:34:43.947Z,1005.97
2023-02-24T01:35:43.927Z,1005.89
2023-02-24T01:36:43.889Z,1005.91
2023-02-24T01:37:43.867Z,1005.93
2023-02-24T01:38:43.837Z,1005.82
2023-02-24T01:39:43.805Z,1005.86
2023-02-24T01:40:43.778Z,1005.81
2023-02-24T01:41:43.747Z,1005.82
2023-02-24T01:42:43.717Z,1005.80
2023-02-24T01:43:43.687Z,1005.74
2023-02-24T01:44:43.764Z,1005.74
2023-02-24T01:45:43.631Z,1005.78
2023-02-24T01:46:43.666Z,1005.81
2023-02-24T01:47:43.591Z,1005.75
2023-02-24T01:48:43.545Z,1005.76
2023-02-24T01:49:43.517Z,1005.73
2023-02-24T01:50:43.485Z,1005.72
2023-02-24T01:51:43.458Z,1005.71
2023-02-24T01:52:43.425Z,1005.66
2023-02-24T01:53:43.399Z,1005.70
2023-02-24T01:54:43.369Z,1005.68
2023-02-24T01:55:43.345Z,1005.63
2023-02-24T01:56:43.310Z,1005.65
2023-02-24T01:57:43.284Z,1005.67
2023-02-24T01:58:43.252Z,1005.62
2023-02-24T01:59:43.228Z,1005.62
2023-02-24T02:00:43.197Z,1005.61
2023-02-24T02:01:43.341Z,1005.58
2023-02-24T02:02:43.378Z,1005.61
2023-02-24T02:03:43.134Z,1005.52
2023-02-24T02:04:43.082Z,1005.56
2023-02-24T02:05:43.056Z,1005.51
2023-02-24T02:06:43.022Z,1005.49
2023-02-24T02:07:42.995Z,1005.47
2023-02-24T02:08:42.976Z,1005.46
2023-02-24T02:09:42.942Z,1005.48
2023-02-24T02:10:42.905Z,1005.46
2023-02-24T02:11:42.896Z,1005.45
2023-02-24T02:12:42.847Z,1005.41
2023-02-24T02:13:42.935Z,1005.42
2023-02-24T02:14:42.792Z,1005.40
2023-02-24T02:15:42.758Z,1005.35
2023-02-24T02:16:42.733Z,1005.36
2023-02-24T02:17:42.708Z,1005.35
2023-02-24T02:18:42.672Z,1005.34
2023-02-24T02:19:42.668Z,1005.30
2023-02-24T02:20:42.625Z,1005.30
2023-02-24T02:21:42.589Z,1005.31
2023-02-24T02:22:42.556Z,1005.28
2023-02-24T02:23:42.528Z,1005.27
2023-02-24T02:24:42.541Z,1005.25
2023-02-24T02:25:42.472Z,1005.22
2023-02-24T02:26:42.438Z,1005.23
2023-02-24T02:27:42.411Z,1005.23
2023-02-24T02:28:42.400Z,1005.20
2023-02-24T02:29:42.356Z,1005.17
2023-02-24T02:30:42.347Z,1005.14
2023-02-24T02:31:42.509Z,1005.14
2023-02-24T02:32:42.431Z,1005.17
2023-02-24T02:33:42.236Z,1005.10
2023-02-24T02:34:42.208Z,1005.08
2023-02-24T02:35:42.199Z,1005.08
2023-02-24T02:36:42.148Z,1005.04
2023-02-24T02:37:42.125Z,1005.04
2023-02-24T02:38:42.092Z,1005.01
2023-02-24T02:39:42.063Z,1004.91
2023-02-24T02:40:42.032Z,1004.95
2023-02-24T02:41:42.009Z,1004.91
2023-02-24T02:42:41.973Z,1004.90
2023-02-24T02:43:41.944Z,1004.89
2023-02-24T02:44:41.914Z,1004.85
2023-02-24T02:45:41.952Z,1004.86
2023-02-24T02:46:41.861Z,1004.87
2023-02-24T02:47:41.823Z,1004.86
2023-02-24T02:48:41.795Z,1004.84
2023-02-24T02:49:41.768Z,1004.80
2023-02-24T02:50:41.745Z,1004.81
2023-02-24T02:51:41.731Z,1004.80
2023-02-24T02:52:41.679Z,1004.82
2023-02-24T02:53:41.652Z,1004.81
2023-02-24T02:54:41.618Z,1004.81
2023-02-24T02:55:41.599Z,1004.80
2023-02-24T02:56:41.562Z,1004.86
2023-02-24T02:57:41.530Z,1004.79
2023-02-24T02:58:41.501Z,1004.77
2023-02-24T02:59:41.476Z,1004.77
2023-02-24T03:00:41.504Z,1004.76
2023-02-24T03:01:41.415Z,1004.72
2023-02-24T03:02:41.390Z,1004.77
2023-02-24T03:03:41.356Z,1004.72
2023-02-24T03:04:41.359Z,1004.72
2023-02-24T03:05:41.298Z,1004.70
2023-02-24T03:06:41.266Z,1004.72
2023-02-24T03:07:41.256Z,1004.70
2023-02-24T03:08:41.210Z,1004.71
2023-02-24T03:09:41.184Z,1004.71
2023-02-24T03:10:41.150Z,1004.70
2023-02-24T03:11:41.121Z,1004.67
2023-02-24T03:12:41.099Z,1004.67
2023-02-24T03:13:41.093Z,1004.66
2023-02-24T03:14:41.033Z,1004.60
2023-02-24T03:15:41.003Z,1004.60
2023-02-24T03:16:41.018Z,1004.56
2023-02-24T03:17:40.959Z,1004.59
2023-02-24T03:18:40.937Z,1004.53
2023-02-24T03:19:40.887Z,1004.54
2023-02-24T03:20:40.860Z,1004.54
2023-02-24T03:21:40.839Z,1004.51
2023-02-24T03:22:40.796Z,1004.51
2023-02-24T03:23:40.789Z,1004.50
2023-02-24T03:24:40.738Z,1004.49
2023-02-24T03:25:40.714Z,1004.50
2023-02-24T03:26:40.684Z,1004.42
2023-02-24T03:27:40.655Z,1004.44
2023-02-24T03:28:40.627Z,1004.42
2023-02-24T03:29:40.596Z,1004.41
2023-02-24T03:30:40.610Z,1004.40
2023-02-24T03:31:40.700Z,1004.40
2023-02-24T03:32:40.625Z,1004.36
2023-02-24T03:33:40.479Z,1004.28
2023-02-24T03:34:40.448Z,1004.30
2023-02-24T03:35:40.420Z,1004.27
2023-02-24T03:36:40.392Z,1004.29
2023-02-24T03:37:40.362Z,1004.31
2023-02-24T03:38:40.331Z,1004.27
2023-02-24T03:39:40.319Z,1004.24
2023-02-24T03:40:40.274Z,1004.30
2023-02-24T03:41:40.243Z,1004.24
2023-02-24T03:42:40.270Z,1004.24
2023-02-24T03:43:40.191Z,1004.22
2023-02-24T03:44:40.153Z,1004.23
2023-02-24T03:45:40.164Z,1004.19
2023-02-24T03:46:40.093Z,1004.21
2023-02-24T03:47:40.065Z,1004.18
2023-02-24T03:48:40.038Z,1004.19
2023-02-24T03:49:40.017Z,1004.18
2023-02-24T03:50:39.976Z,1004.20
2023-02-24T03:51:39.955Z,1004.21
2023-02-24T03:52:39.921Z,1004.21
2023-02-24T03:53:39.889Z,1004.19
2023-02-24T03:54:39.858Z,1004.24
2023-02-24T03:55:39.860Z,1004.22
2023-02-24T03:56:39.799Z,1004.20
2023-02-24T03:57:39.767Z,1004.14
2023-02-24T03:58:39.748Z,1004.15
2023-02-24T03:59:39.718Z,1004.14
2023-02-24T04:00:39.678Z,1004.12
2023-02-24T04:01:39.653Z,1004.10
2023-02-24T04:02:39.658Z,1004.08
2023-02-24T04:03:39.635Z,1004.08
2023-02-24T04:04:39.610Z,1004.06
2023-02-24T04:05:39.566Z,1004.11
2023-02-24T04:06:39.503Z,1004.06
2023-02-24T04:07:39.473Z,1004.11
2023-02-24T04:08:39.449Z,1004.09
2023-02-24T04:09:39.414Z,1004.11
2023-02-24T04:10:39.385Z,1004.10
2023-02-24T04:11:39.374Z,1004.09
2023-02-24T04:12:39.362Z,1004.11
2023-02-24T04:13:39.299Z,1004.05
2023-02-24T04:14:39.264Z,1004.07
2023-02-24T04:15:39.469Z,1004.09
2023-02-24T04:16:39.209Z,1004.09
2023-02-24T04:17:39.178Z,1004.08
2023-02-24T04:18:40.880Z,1004.05
2023-02-24T04:19:39.118Z,1004.06
2023-02-24T04:20:39.086Z,1004.03
2023-02-24T04:21:39.056Z,1004.00
2023-02-24T04:22:39.029Z,1004.03
2023-02-24T04:23:39.003Z,1004.02
2023-02-24T04:24:38.971Z,1004.01
2023-02-24T04:25:38.943Z,1003.99
2023-02-24T04:26:38.915Z,1003.98
2023-02-24T04:27:38.898Z,1003.99
2023-02-24T04:28:38.887Z,1003.94
2023-02-24T04:29:39.174Z,1003.96
2023-02-24T04:31:31.468Z,1003.98
2023-02-24T04:31:39.101Z,1003.97
2023-02-24T04:32:38.864Z,1003.96
2023-02-24T04:33:38.705Z,1003.99
2023-02-24T04:34:38.685Z,1003.99
2023-02-24T04:35:38.648Z,1003.98
2023-02-24T04:36:38.614Z,1003.94
2023-02-24T04:37:38.604Z,1003.96
2023-02-24T04:38:38.557Z,1003.93
2023-02-24T04:39:38.561Z,1003.94
2023-02-24T04:40:38.496Z,1003.89
2023-02-24T04:41:38.463Z,1003.88
2023-02-24T04:42:38.438Z,1003.86
2023-02-24T04:43:38.426Z,1003.79
2023-02-24T04:44:38.381Z,1003.83
2023-02-24T04:45:38.347Z,1003.76
2023-02-24T04:46:38.373Z,1003.78
2023-02-24T04:47:38.285Z,1003.72
2023-02-24T04:48:38.260Z,1003.72
2023-02-24T04:49:38.229Z,1003.69
2023-02-24T04:50:38.203Z,1003.68
2023-02-24T04:51:38.166Z,1003.67
2023-02-24T04:52:38.145Z,1003.66
2023-02-24T04:53:38.107Z,1003.65
2023-02-24T04:54:38.084Z,1003.63
2023-02-24T04:55:38.046Z,1003.64
2023-02-24T04:56:38.023Z,1003.57
2023-02-24T04:57:37.994Z,1003.57
2023-02-24T04:58:37.977Z,1003.57
2023-02-24T04:59:37.952Z,1003.54
2023-02-24T05:00:37.904Z,1003.50
2023-02-24T05:01:37.874Z,1003.50
2023-02-24T05:02:37.845Z,1003.50
2023-02-24T05:03:37.838Z,1003.42
2023-02-24T05:04:37.861Z,1003.40
2023-02-24T05:05:37.758Z,1003.32
2023-02-24T05:06:37.725Z,1003.34
2023-02-24T05:07:37.695Z,1003.34
2023-02-24T05:08:37.680Z,1003.32
2023-02-24T05:09:37.634Z,1003.32
2023-02-24T05:10:37.606Z,1003.27
2023-02-24T05:11:37.576Z,1003.24
2023-02-24T05:12:37.547Z,1003.24
2023-02-24T05:13:37.564Z,1003.21
2023-02-24T05:14:37.513Z,1003.19
2023-02-24T05:15:37.486Z,1003.16
2023-02-24T05:16:37.508Z,1003.09
2023-02-24T05:17:37.399Z,1003.12
2023-02-24T05:18:37.488Z,1003.09
2023-02-24T05:19:37.342Z,1003.10
2023-02-24T05:20:37.312Z,1003.07
2023-02-24T05:21:37.284Z,1003.06
2023-02-24T05:22:37.250Z,1003.07
2023-02-24T05:23:37.227Z,1003.05
2023-02-24T05:24:37.194Z,1003.06
2023-02-24T05:25:37.160Z,1003.01
2023-02-24T05:26:37.143Z,1002.99
2023-02-24T05:27:37.103Z,1002.97
2023-02-24T05:28:37.089Z,1002.98
2023-02-24T05:29:37.040Z,1002.97
2023-02-24T05:30:37.089Z,1002.93
2023-02-24T05:31:37.290Z,1002.94
2023-02-24T05:32:38.038Z,1002.93
2023-02-24T05:33:36.928Z,1002.91
2023-02-24T05:34:36.949Z,1002.91
2023-02-24T05:35:36.884Z,1002.88
2023-02-24T05:36:36.865Z,1002.86
2023-02-24T05:37:36.800Z,1002.84
2023-02-24T05:38:36.775Z,1002.84
2023-02-24T05:39:36.740Z,1002.84
2023-02-24T05:40:36.713Z,1002.83
2023-02-24T05:41:36.684Z,1002.76
2023-02-24T05:42:36.652Z,1002.77
2023-02-24T05:43:36.623Z,1002.71
2023-02-24T05:44:36.599Z,1002.68
2023-02-24T05:45:36.564Z,1002.68
2023-02-24T05:46:36.615Z,1002.65
2023-02-24T05:47:36.521Z,1002.62
2023-02-24T05:48:36.534Z,1002.61
2023-02-24T05:49:36.441Z,1002.59
2023-02-24T05:50:36.414Z,1002.60
2023-02-24T05:51:36.387Z,1002.58
2023-02-24T05:52:36.358Z,1002.59
2023-02-24T05:53:36.343Z,1002.60
2023-02-24T05:54:36.296Z,1002.57
2023-02-24T05:55:36.268Z,1002.57
2023-02-24T05:56:36.236Z,1002.52
2023-02-24T05:57:36.213Z,1002.50
2023-02-24T05:58:36.176Z,1002.46
2023-02-24T05:59:36.161Z,1002.50
2023-02-24T06:00:36.126Z,1002.47
2023-02-24T06:01:36.151Z,1002.47
2023-02-24T06:02:36.066Z,1002.47
2023-02-24T06:03:36.056Z,1002.42
2023-02-24T06:04:35.998Z,1002.42
2023-02-24T06:05:35.970Z,1002.44
2023-02-24T06:06:35.993Z,1002.36
2023-02-24T06:07:35.910Z,1002.35
2023-02-24T06:08:35.882Z,1002.28
2023-02-24T06:09:35.860Z,1002.26
2023-02-24T06:10:35.822Z,1002.24
2023-02-24T06:11:35.863Z,1002.23
2023-02-24T06:12:35.770Z,1002.19
2023-02-24T06:13:35.736Z,1002.18
2023-02-24T06:14:35.718Z,1002.18
2023-02-24T06:15:35.682Z,1002.17
2023-02-24T06:16:35.746Z,1002.20
2023-02-24T06:17:35.641Z,1002.15
2023-02-24T06:18:35.586Z,1002.11
2023-02-24T06:19:35.577Z,1002.10
2023-02-24T06:20:35.528Z,1002.06
2023-02-24T06:21:35.502Z,1002.06
2023-02-24T06:22:35.478Z,1002.04
2023-02-24T06:23:35.440Z,1002.03
2023-02-24T06:24:35.407Z,1002.01
2023-02-24T06:25:35.388Z,1001.99
2023-02-24T06:26:35.354Z,1001.99
2023-02-24T06:27:35.321Z,1001.98
2023-02-24T06:28:35.288Z,1001.94
2023-02-24T06:29:35.264Z,1001.93
2023-02-24T06:30:35.310Z,1001.95
2023-02-24T06:31:35.233Z,1001.92
2023-02-24T06:32:35.343Z,1001.94
2023-02-24T06:33:35.145Z,1001.92
2023-02-24T06:34:35.115Z,1001.91
2023-02-24T06:35:35.113Z,1001.88
2023-02-24T06:36:35.057Z,1001.87
2023-02-24T06:37:35.030Z,1001.88
2023-02-24T06:38:35.002Z,1001.86
2023-02-24T06:39:36.781Z,1001.88
2023-02-24T06:40:34.940Z,1001.96
2023-02-24T06:41:34.917Z,1001.97
2023-02-24T06:42:34.983Z,1001.90
2023-02-24T06:43:34.853Z,1001.90
2023-02-24T06:44:34.824Z,1001.93
2023-02-24T06:45:34.849Z,1001.92
2023-02-24T06:46:34.779Z,1001.90
2023-02-24T06:47:34.735Z,1001.88
2023-02-24T06:48:34.716Z,1001.79
2023-02-24T06:49:34.676Z,1001.81
2023-02-24T06:50:34.650Z,1001.78
2023-02-24T06:51:34.674Z,1001.79
2023-02-24T06:52:34.613Z,1001.77
2023-02-24T06:53:34.559Z,1001.72
2023-02-24T06:54:34.524Z,1001.75
2023-02-24T06:55:34.499Z,1001.73
2023-02-24T06:56:34.466Z,1001.72
2023-02-24T06:57:34.456Z,1001.69
2023-02-24T06:58:34.419Z,1001.76
2023-02-24T06:59:34.387Z,1001.75
2023-02-24T07:00:34.348Z,1001.78
2023-02-24T07:01:34.344Z,1001.73
2023-02-24T07:02:34.287Z,1001.77
2023-02-24T07:03:34.264Z,1001.76
2023-02-24T07:04:34.286Z,1001.77
2023-02-24T07:05:34.216Z,1001.74
2023-02-24T07:06:34.178Z,1001.75
2023-02-24T07:07:34.160Z,1001.74
2023-02-24T07:08:34.119Z,1001.72
2023-02-24T07:09:34.089Z,1001.69
2023-02-24T07:10:34.050Z,1001.65
2023-02-24T07:11:34.022Z,1001.65
2023-02-24T07:12:33.992Z,1001.65
2023-02-24T07:13:33.976Z,1001.58
2023-02-24T07:14:33.977Z,1001.53
2023-02-24T07:15:33.902Z,1001.52
2023-02-24T07:16:33.925Z,1001.52
2023-02-24T07:17:33.846Z,1001.46
2023-02-24T07:18:33.816Z,1001.46
2023-02-24T07:19:33.788Z,1001.44
2023-02-24T07:20:33.753Z,1001.39
2023-02-24T07:21:33.730Z,1001.44
2023-02-24T07:22:33.707Z,1001.45
2023-02-24T07:23:33.691Z,1001.38
2023-02-24T07:24:33.758Z,1001.34
2023-02-24T07:25:33.615Z,1001.35
2023-02-24T07:26:33.586Z,1001.34
2023-02-24T07:27:33.555Z,1001.37
2023-02-24T07:28:33.521Z,1001.31
2023-02-24T07:29:33.491Z,1001.28
2023-02-24T07:30:33.576Z,1001.30
2023-02-24T07:31:33.636Z,1001.22
2023-02-24T07:32:33.416Z,1001.21
2023-02-24T07:33:33.375Z,1001.21
2023-02-24T07:34:33.345Z,1001.20
2023-02-24T07:35:33.317Z,1001.22
2023-02-24T07:36:33.288Z,1001.17
2023-02-24T07:37:33.256Z,1001.15
2023-02-24T07:38:33.222Z,1001.12
2023-02-24T07:39:33.221Z,1001.11
2023-02-24T07:40:33.162Z,1001.10
2023-02-24T07:41:33.134Z,1001.10
2023-02-24T07:42:33.105Z,1001.09
2023-02-24T07:43:33.075Z,1001.05
2023-02-24T07:44:33.074Z,1001.02
2023-02-24T07:45:33.064Z,1001.03
2023-02-24T07:46:33.051Z,1001.04
2023-02-24T07:47:32.954Z,1001.02
2023-02-24T07:48:32.924Z,1001.01
2023-02-24T07:49:32.897Z,1001.03
2023-02-24T07:50:33.063Z,1001.00
2023-02-24T07:51:32.836Z,1001.02
2023-02-24T07:52:32.805Z,1000.96
2023-02-24T07:53:32.778Z,1001.02
2023-02-24T07:54:32.748Z,1000.95
2023-02-24T07:55:32.737Z,1000.98
2023-02-24T07:56:32.687Z,1000.96
2023-02-24T07:57:32.659Z,1000.98
2023-02-24T07:58:32.628Z,1000.97
2023-02-24T07:59:32.657Z,1000.97
2023-02-24T08:00:32.575Z,1000.96
2023-02-24T08:01:32.540Z,1000.93
2023-02-24T08:03:32.481Z,1000.90
2023-02-24T08:04:33.984Z,1000.84
2023-02-24T08:05:32.480Z,1000.86
